• Join FlightAware (Why Join?)
  • Login
  • US Flag 
01:23PM EDT


 

Airport Tracker/Info


-or-


 

Live Flight TrackerFlight Track Log ✈ KAP29 ✈ 06-Jun-2013 ✈ KBOS - KSLK

Flight Track Log - Related Links

Times and Time Zones

All times are in EDT time to prevent confusion due to time zone crossing. See the KAP29 flight status page for this flight to view local times or setup timezone preferences in your user account.

Time Position Orientation Groundspeed Altitude Reporting Facility
EDT Latitude Longitude Course Direction KTS MPH feet Rate Location/Type
06:23PM 42.3667 -71.0167 270° West 104 120 400  Level KA90
06:24PM 42.3667 -71.0833 270° West 135 155 1,700 900 Climbing KA90
06:25PM 42.3667 -71.1333 270° West 140 161 2,700 1,020 Climbing KA90
06:26PM 42.3667 -71.1833 270° West 130 150 3,800 1,020 Climbing KA90
06:27PM 42.4000 -71.2167 324° Northwest 142 163 4,700 600 Climbing KA90
06:28PM 42.4333 -71.2333 340° North 166 191 5,000 120 Climbing KA90
06:29PM 42.4833 -71.2500 346° North 185 213 5,000  Level KA90
06:30PM 42.5500 -71.2667 350° North 179 206 5,000 120 Level KA90
06:31PM 42.5833 -71.2833 340° North 170 196 5,300 240 Climbing KA90
06:32PM 42.6333 -71.3000 346° North 166 191 5,600 300 Climbing KA90
06:33PM 42.6667 -71.3000 360° North 159 183 5,900 360 Climbing KA90
06:34PM 42.7167 -71.3167 346° North 159 183 6,300 360 Climbing KA90
06:35PM 42.7667 -71.3333 346° North 157 181 6,700 360 Climbing KA90
06:36PM 42.8000 -71.3500 340° North 147 169 7,100 360 Climbing KA90
06:37PM 42.8333 -71.4000 312° West 147 169 7,500 420 Climbing KA90
06:38PM 42.8500 -71.4333 304° West 142 163 8,000 240 Climbing KA90
06:39PM 42.8833 -71.4833 312° West 161 185 8,000  Level KA90
06:40PM 42.9167 -71.5167 324° Northwest 171 197 8,100  Climbing KA90
06:41PM 42.9500 -71.5667 312° West 176 203 8,000 -60 Descending KA90
06:42PM 42.9789 -71.6200 307° West 181 208 8,000  Level Boston Center
06:43PM 43.0106 -71.6622 316° Northwest 191 220 8,000  Level Boston Center
06:44PM 43.0461 -71.7100 316° Northwest 185 213 8,000  Level Boston Center
06:45PM 43.0797 -71.7578 314° West 177 204 8,000  Level Boston Center
06:46PM 43.1175 -71.8058 317° Northwest 177 204 8,000  Level Boston Center
06:47PM 43.1553 -71.8508 319° Northwest 182 209 8,000  Level Boston Center
06:48PM 43.1869 -71.8992 312° West 177 204 8,000  Level Boston Center
06:49PM 43.2225 -71.9500 314° West 177 204 8,000  Level Boston Center
06:50PM 43.2539 -71.9983 312° West 177 204 8,000  Level Boston Center
06:51PM 43.2875 -72.0494 312° West 182 209 8,000  Level Boston Center
06:52PM 43.3231 -72.1006 314° West 182 209 8,000  Level Boston Center
06:53PM 43.3567 -72.1489 314° West 182 209 8,000  Level Boston Center
06:54PM 43.3922 -72.1972 315° West 187 215 8,000  Level Boston Center
06:55PM 43.4256 -72.2486 312° West 187 215 8,000  Level Boston Center
06:56PM 43.4611 -72.2969 315° West 187 215 8,000  Level Boston Center
06:57PM 43.4986 -72.3486 315° West 187 215 8,000  Level Boston Center
06:58PM 43.5319 -72.4000 312° West 187 215 8,000  Level Boston Center
06:59PM 43.5675 -72.4486 315° West 187 215 8,000  Level Boston Center
07:00PM 43.6008 -72.5003 312° West 187 215 8,000  Level Boston Center
07:01PM 43.6361 -72.5519 313° West 187 215 8,000  Level Boston Center
07:02PM 43.6736 -72.6036 315° West 187 215 8,000 -60 Level Boston Center
07:03PM 43.7047 -72.6411 319° Northwest 187 215 7,900 -60 Descending Boston Center
07:04PM 43.7381 -72.6986 309° West 181 208 7,900  Level Boston Center
07:05PM 43.7753 -72.7536 313° West 188 216 7,900  Level Boston Center
07:06PM 43.8106 -72.8056 313° West 188 216 7,900  Level Boston Center
07:07PM 43.8481 -72.8547 317° Northwest 188 216 7,900  Level Boston Center
07:08PM 43.8833 -72.9097 312° West 188 216 7,900  Level Boston Center
07:09PM 43.9164 -72.9617 311° West 188 216 7,900  Level Boston Center
07:10PM 43.9578 -73.0197 315° West 188 216 7,900  Level Boston Center
07:11PM 43.9908 -73.0719 311° West 188 216 7,900  Level Boston Center
07:12PM 44.0258 -73.1244 313° West 188 216 7,900  Level Boston Center
07:13PM 44.0631 -73.1739 316° Northwest 188 216 7,900  Level Boston Center
07:14PM 44.0983 -73.2264 313° West 188 216 7,900  Level Boston Center
07:15PM 44.1333 -73.2789 313° West 188 216 7,900  Level Boston Center
07:16PM 44.1683 -73.3314 313° West 188 216 7,900  Level Boston Center
07:17PM 44.2033 -73.3814 314° West 188 216 7,900 -240 Level Boston Center
07:18PM 44.2403 -73.4397 311° West 188 216 7,500 -420 Descending Boston Center
07:19PM 44.2794 -73.4928 316° Northwest 188 216 7,100 -300 Descending Boston Center
07:20PM 44.3164 -73.5514 311° West 194 223 7,000 -60 Descending Boston Center
07:21PM 44.3514 -73.6042 313° West 194 223 7,000  Level Boston Center
07:22PM 44.3842 -73.6542 313° West 195 224 7,000  Level Boston Center
07:23PM 44.4189 -73.7072 313° West 195 224 7,000  Level Boston Center
07:24PM 44.4578 -73.7692 311° West 195 224 7,000  Level Boston Center
07:25PM 44.4928 -73.8167 316° Northwest 195 224 7,000 -240 Level Boston Center
07:26PM 44.5294 -73.8728 313° West 195 224 6,600 -480 Descending Boston Center
07:27PM 44.5536 -73.9433 296° West 202 232 6,100 -600 Descending Boston Center
07:28PM 44.5694 -74.0136 288° West 196 226 5,400 -780 Descending Boston Center
07:29PM 44.5394 -74.0594 227° Southwest 159 183 4,600 -840 Descending Boston Center
07:30PM 44.4975 -74.0961 212° Southwest 159 183 3,800 -540 Descending Boston Center
07:31PM 44.4636 -74.1300 216° Southwest 159 183 3,600 -540 Descending Boston Center
07:32PM 44.4297 -74.1611 213° Southwest 159 183 2,800 -600 Descending Boston Center
07:33PM 44.4000 -74.1950 219° Southwest 154 177 2,500 2,100 Descending Boston Center
07:34PM 44.3683 -74.2289 217° Southwest 154 177 7,000 2,220 Climbing Boston Center
07:35PM 44.3364 -74.2658 220° Southwest 154 177 7,000  Level Boston Center